Airfield :
LOGIN :

Register | Disclaimer

   EN    FR    IT 

 










Legend :    VFR   Marginal VFR   IFR   Intensive IFR   Very Intensive IFR
Visi :
Ceiling :
>= 8 km
>= 3000ft
5 to 8 km
1000 to 3000 ft
1500m to 5 km
500 to 1000 ft
800 to 1500m
200 to 500 ft
< 800m
< 200 ft
Symbols :   Thunderstorms  Fog  Heavy snow  Heavy precipitations  Wind > 20 kt
SIGMETs :     Misc.  Thunderstorms  Icing  Turbulence  Mountain Waves  Volcanic Ashes






- Airport Elevation : 598 ft
- IATA code : BQH


EGKB - Biggin Hill

CURRENT METAR :
  • 201420Z 07009KT 030V110 9999 FEW039 18/10 Q1013

EXPIRED METARs :
  • 201350Z 04008KT 010V080 CAVOK 18/10 Q1013
  • 201320Z 02008KT 330V070 CAVOK 18/09 Q1013
  • 201250Z 05008KT 030V090 CAVOK 17/09 Q1014
  • 201220Z 03009KT 340V070 CAVOK 17/09 Q1014
  • 201150Z 07008KT 030V110 CAVOK 17/09 Q1014
  • 201120Z 07009KT CAVOK 17/10 Q1014
  • 201050Z 04009KT 350V070 CAVOK 16/09 Q1015
  • 201020Z 04009KT 360V070 CAVOK 16/08 Q1015

TAF TAF EGKB
Valid from the 20 at 15:00 until the 20 at 22:00 UTC


201400Z 2015/2022 07008KT 9999 FEW035
PROB30
TEMPO 2015/2020 6000 SHRA



MET'MAP, your aeronautical weather chart ! - Copyright ORBIFLY December 2007 - Disclaimer

ORBIFLY MET'MAP TEAM :

Programming & Development : Alexandra Zaïnal
Original concept : Baudouin d'Aumeries
Technical & hardware support : Manuel Goepfert
Assistance : Marc-Olivier Méhu




SOURCES & CREDITS :

   NOAA